sensor_id;sensor_type;location;lat;lon;timestamp;P1;durP1;ratioP1;P2;durP2;ratioP2
16689;SDS011;8458;52.220;9.884;2023-04-03T00:01:50;2.23;;;0.93;;
16689;SDS011;8458;52.220;9.884;2023-04-03T00:04:17;3.30;;;0.90;;
16689;SDS011;8458;52.220;9.884;2023-04-03T00:06:43;2.90;;;1.00;;
16689;SDS011;8458;52.220;9.884;2023-04-03T00:09:10;2.17;;;1.00;;
16689;SDS011;8458;52.220;9.884;2023-04-03T00:11:37;2.30;;;1.07;;
16689;SDS011;8458;52.220;9.884;2023-04-03T00:14:04;1.27;;;1.00;;
16689;SDS011;8458;52.220;9.884;2023-04-03T00:16:30;2.13;;;1.00;;
16689;SDS011;8458;52.220;9.884;2023-04-03T00:18:57;1.67;;;1.00;;
16689;SDS011;8458;52.220;9.884;2023-04-03T00:21:23;1.27;;;0.90;;
16689;SDS011;8458;52.220;9.884;2023-04-03T00:23:51;2.27;;;0.90;;
16689;SDS011;8458;52.220;9.884;2023-04-03T00:26:17;2.03;;;0.80;;
16689;SDS011;8458;52.220;9.884;2023-04-03T00:28:45;2.23;;;1.10;;
16689;SDS011;8458;52.220;9.884;2023-04-03T00:31:13;1.57;;;1.00;;
16689;SDS011;8458;52.220;9.884;2023-04-03T00:33:41;2.80;;;0.90;;
16689;SDS011;8458;52.220;9.884;2023-04-03T00:36:07;1.43;;;0.90;;
16689;SDS011;8458;52.220;9.884;2023-04-03T00:38:35;1.53;;;0.87;;
16689;SDS011;8458;52.220;9.884;2023-04-03T00:41:02;2.27;;;0.90;;
16689;SDS011;8458;52.220;9.884;2023-04-03T00:43:28;1.43;;;0.90;;
16689;SDS011;8458;52.220;9.884;2023-04-03T00:45:56;2.07;;;1.00;;
16689;SDS011;8458;52.220;9.884;2023-04-03T00:48:25;3.00;;;1.27;;
16689;SDS011;8458;52.220;9.884;2023-04-03T00:50:55;4.03;;;1.20;;
16689;SDS011;8458;52.220;9.884;2023-04-03T00:53:23;1.67;;;1.10;;
16689;SDS011;8458;52.220;9.884;2023-04-03T00:55:51;1.53;;;0.90;;
16689;SDS011;8458;52.220;9.884;2023-04-03T00:58:20;1.30;;;1.00;;
16689;SDS011;8458;52.220;9.884;2023-04-03T01:00:53;1.73;;;1.13;;
16689;SDS011;8458;52.220;9.884;2023-04-03T01:03:24;2.57;;;1.10;;
16689;SDS011;8458;52.220;9.884;2023-04-03T01:05:51;2.47;;;0.90;;
16689;SDS011;8458;52.220;9.884;2023-04-03T01:08:17;3.10;;;1.10;;
16689;SDS011;8458;52.220;9.884;2023-04-03T01:10:44;1.70;;;0.77;;
16689;SDS011;8458;52.220;9.884;2023-04-03T01:13:17;2.30;;;0.90;;
16689;SDS011;8458;52.220;9.884;2023-04-03T01:15:46;2.03;;;1.00;;
16689;SDS011;8458;52.220;9.884;2023-04-03T01:18:12;1.60;;;0.90;;
16689;SDS011;8458;52.220;9.884;2023-04-03T01:20:45;2.43;;;0.80;;
16689;SDS011;8458;52.220;9.884;2023-04-03T01:23:35;2.03;;;0.90;;
16689;SDS011;8458;52.220;9.884;2023-04-03T01:26:09;2.10;;;0.93;;
16689;SDS011;8458;52.220;9.884;2023-04-03T01:28:36;2.40;;;1.10;;
16689;SDS011;8458;52.220;9.884;2023-04-03T01:31:05;2.57;;;1.13;;
16689;SDS011;8458;52.220;9.884;2023-04-03T01:33:41;1.43;;;0.90;;
16689;SDS011;8458;52.220;9.884;2023-04-03T01:36:08;1.20;;;0.80;;
16689;SDS011;8458;52.220;9.884;2023-04-03T01:38:35;2.73;;;1.13;;
16689;SDS011;8458;52.220;9.884;2023-04-03T01:41:02;1.13;;;0.90;;
16689;SDS011;8458;52.220;9.884;2023-04-03T01:43:28;1.43;;;0.80;;
16689;SDS011;8458;52.220;9.884;2023-04-03T01:45:55;2.80;;;1.07;;
16689;SDS011;8458;52.220;9.884;2023-04-03T01:48:21;1.73;;;0.90;;
16689;SDS011;8458;52.220;9.884;2023-04-03T01:50:49;2.63;;;0.97;;
16689;SDS011;8458;52.220;9.884;2023-04-03T01:53:16;1.73;;;1.00;;
16689;SDS011;8458;52.220;9.884;2023-04-03T01:55:42;2.27;;;1.10;;
16689;SDS011;8458;52.220;9.884;2023-04-03T01:58:09;1.70;;;1.03;;
16689;SDS011;8458;52.220;9.884;2023-04-03T02:00:35;2.60;;;1.00;;
16689;SDS011;8458;52.220;9.884;2023-04-03T02:03:02;1.90;;;1.00;;
16689;SDS011;8458;52.220;9.884;2023-04-03T02:05:29;2.27;;;1.00;;
16689;SDS011;8458;52.220;9.884;2023-04-03T02:07:57;1.90;;;0.97;;
16689;SDS011;8458;52.220;9.884;2023-04-03T02:10:23;3.33;;;1.13;;
16689;SDS011;8458;52.220;9.884;2023-04-03T02:12:50;2.33;;;1.10;;
16689;SDS011;8458;52.220;9.884;2023-04-03T02:15:16;1.50;;;0.83;;
16689;SDS011;8458;52.220;9.884;2023-04-03T02:17:43;2.33;;;1.00;;
16689;SDS011;8458;52.220;9.884;2023-04-03T02:20:10;1.20;;;1.00;;
16689;SDS011;8458;52.220;9.884;2023-04-03T02:22:37;1.97;;;0.90;;
16689;SDS011;8458;52.220;9.884;2023-04-03T02:25:05;1.87;;;0.90;;
16689;SDS011;8458;52.220;9.884;2023-04-03T02:27:32;1.83;;;0.70;;
16689;SDS011;8458;52.220;9.884;2023-04-03T02:29:58;2.07;;;1.03;;
16689;SDS011;8458;52.220;9.884;2023-04-03T02:32:25;1.97;;;0.87;;
16689;SDS011;8458;52.220;9.884;2023-04-03T02:34:52;3.20;;;1.10;;
16689;SDS011;8458;52.220;9.884;2023-04-03T02:37:18;3.20;;;1.20;;
16689;SDS011;8458;52.220;9.884;2023-04-03T02:39:45;2.73;;;1.00;;
16689;SDS011;8458;52.220;9.884;2023-04-03T02:42:12;2.27;;;0.90;;
16689;SDS011;8458;52.220;9.884;2023-04-03T02:44:39;1.97;;;1.00;;
16689;SDS011;8458;52.220;9.884;2023-04-03T02:47:05;1.63;;;0.93;;
16689;SDS011;8458;52.220;9.884;2023-04-03T02:49:32;1.30;;;0.70;;
16689;SDS011;8458;52.220;9.884;2023-04-03T02:51:59;2.57;;;0.90;;
16689;SDS011;8458;52.220;9.884;2023-04-03T02:54:25;1.77;;;0.90;;
16689;SDS011;8458;52.220;9.884;2023-04-03T02:56:55;2.43;;;1.00;;
16689;SDS011;8458;52.220;9.884;2023-04-03T02:59:23;1.70;;;1.00;;
16689;SDS011;8458;52.220;9.884;2023-04-03T03:01:49;2.63;;;0.83;;
16689;SDS011;8458;52.220;9.884;2023-04-03T03:04:16;1.73;;;1.10;;
16689;SDS011;8458;52.220;9.884;2023-04-03T03:06:42;2.63;;;0.93;;
16689;SDS011;8458;52.220;9.884;2023-04-03T03:09:09;1.90;;;0.87;;
16689;SDS011;8458;52.220;9.884;2023-04-03T03:11:35;2.30;;;1.00;;
16689;SDS011;8458;52.220;9.884;2023-04-03T03:14:02;3.33;;;1.00;;
16689;SDS011;8458;52.220;9.884;2023-04-03T03:16:29;1.50;;;0.87;;
16689;SDS011;8458;52.220;9.884;2023-04-03T03:18:56;1.57;;;0.90;;
16689;SDS011;8458;52.220;9.884;2023-04-03T03:21:23;2.20;;;1.10;;
16689;SDS011;8458;52.220;9.884;2023-04-03T03:23:49;1.53;;;0.90;;
16689;SDS011;8458;52.220;9.884;2023-04-03T03:26:15;1.97;;;0.80;;
16689;SDS011;8458;52.220;9.884;2023-04-03T03:28:42;1.90;;;0.80;;
16689;SDS011;8458;52.220;9.884;2023-04-03T03:31:09;1.17;;;0.83;;
16689;SDS011;8458;52.220;9.884;2023-04-03T03:33:37;1.47;;;0.70;;
16689;SDS011;8458;52.220;9.884;2023-04-03T03:36:04;2.63;;;1.10;;
16689;SDS011;8458;52.220;9.884;2023-04-03T03:38:31;2.60;;;0.80;;
16689;SDS011;8458;52.220;9.884;2023-04-03T03:40:58;1.50;;;0.80;;
16689;SDS011;8458;52.220;9.884;2023-04-03T03:43:24;1.40;;;0.80;;
16689;SDS011;8458;52.220;9.884;2023-04-03T03:45:51;1.30;;;0.90;;
16689;SDS011;8458;52.220;9.884;2023-04-03T03:48:18;3.67;;;1.07;;
16689;SDS011;8458;52.220;9.884;2023-04-03T03:50:47;1.47;;;0.83;;
16689;SDS011;8458;52.220;9.884;2023-04-03T03:53:14;1.60;;;0.83;;
16689;SDS011;8458;52.220;9.884;2023-04-03T03:55:41;2.13;;;1.00;;
16689;SDS011;8458;52.220;9.884;2023-04-03T03:58:07;2.87;;;1.03;;
16689;SDS011;8458;52.220;9.884;2023-04-03T04:00:34;2.83;;;1.03;;
16689;SDS011;8458;52.220;9.884;2023-04-03T04:03:00;2.77;;;1.00;;
16689;SDS011;8458;52.220;9.884;2023-04-03T04:05:27;2.27;;;1.07;;
16689;SDS011;8458;52.220;9.884;2023-04-03T04:07:55;1.73;;;0.83;;
16689;SDS011;8458;52.220;9.884;2023-04-03T04:10:21;3.33;;;1.27;;
16689;SDS011;8458;52.220;9.884;2023-04-03T04:12:48;1.67;;;1.10;;
16689;SDS011;8458;52.220;9.884;2023-04-03T04:15:16;1.63;;;0.80;;
16689;SDS011;8458;52.220;9.884;2023-04-03T04:17:42;2.70;;;1.00;;
16689;SDS011;8458;52.220;9.884;2023-04-03T04:20:09;1.80;;;1.00;;
16689;SDS011;8458;52.220;9.884;2023-04-03T04:22:36;3.03;;;1.20;;
16689;SDS011;8458;52.220;9.884;2023-04-03T04:25:05;1.10;;;0.80;;
16689;SDS011;8458;52.220;9.884;2023-04-03T04:27:32;3.57;;;1.20;;
16689;SDS011;8458;52.220;9.884;2023-04-03T04:29:58;4.60;;;1.10;;
16689;SDS011;8458;52.220;9.884;2023-04-03T04:32:25;3.97;;;1.30;;
16689;SDS011;8458;52.220;9.884;2023-04-03T04:34:52;2.87;;;1.20;;
16689;SDS011;8458;52.220;9.884;2023-04-03T04:37:18;2.00;;;1.20;;
16689;SDS011;8458;52.220;9.884;2023-04-03T04:39:44;3.13;;;1.10;;
16689;SDS011;8458;52.220;9.884;2023-04-03T04:42:12;2.33;;;1.07;;
16689;SDS011;8458;52.220;9.884;2023-04-03T04:44:39;1.63;;;1.00;;
16689;SDS011;8458;52.220;9.884;2023-04-03T04:47:06;1.90;;;1.10;;
16689;SDS011;8458;52.220;9.884;2023-04-03T04:49:33;1.93;;;1.10;;
16689;SDS011;8458;52.220;9.884;2023-04-03T04:51:59;2.40;;;1.23;;
16689;SDS011;8458;52.220;9.884;2023-04-03T04:54:26;2.23;;;1.07;;
16689;SDS011;8458;52.220;9.884;2023-04-03T04:56:52;2.73;;;0.90;;
16689;SDS011;8458;52.220;9.884;2023-04-03T04:59:20;1.67;;;1.00;;
16689;SDS011;8458;52.220;9.884;2023-04-03T05:01:46;2.37;;;1.07;;
16689;SDS011;8458;52.220;9.884;2023-04-03T05:04:13;2.10;;;1.23;;
16689;SDS011;8458;52.220;9.884;2023-04-03T05:06:40;2.00;;;1.20;;
16689;SDS011;8458;52.220;9.884;2023-04-03T05:09:06;1.53;;;1.10;;
16689;SDS011;8458;52.220;9.884;2023-04-03T05:11:33;1.80;;;0.77;;
16689;SDS011;8458;52.220;9.884;2023-04-03T05:14:00;2.93;;;1.00;;
16689;SDS011;8458;52.220;9.884;2023-04-03T05:16:28;1.90;;;1.00;;
16689;SDS011;8458;52.220;9.884;2023-04-03T05:18:54;1.60;;;0.87;;
16689;SDS011;8458;52.220;9.884;2023-04-03T05:21:21;1.30;;;1.00;;
16689;SDS011;8458;52.220;9.884;2023-04-03T05:23:49;2.87;;;1.10;;
16689;SDS011;8458;52.220;9.884;2023-04-03T05:26:16;2.00;;;1.03;;
16689;SDS011;8458;52.220;9.884;2023-04-03T05:28:42;1.50;;;1.00;;
16689;SDS011;8458;52.220;9.884;2023-04-03T05:31:09;1.70;;;1.10;;
16689;SDS011;8458;52.220;9.884;2023-04-03T05:33:37;1.57;;;1.17;;
16689;SDS011;8458;52.220;9.884;2023-04-03T05:36:04;2.27;;;1.17;;
16689;SDS011;8458;52.220;9.884;2023-04-03T05:38:31;2.63;;;1.13;;
16689;SDS011;8458;52.220;9.884;2023-04-03T05:40:58;3.03;;;1.33;;
16689;SDS011;8458;52.220;9.884;2023-04-03T05:43:25;2.93;;;1.23;;
16689;SDS011;8458;52.220;9.884;2023-04-03T05:45:52;1.83;;;1.10;;
16689;SDS011;8458;52.220;9.884;2023-04-03T05:48:18;3.23;;;1.37;;
16689;SDS011;8458;52.220;9.884;2023-04-03T05:50:46;2.50;;;1.30;;
16689;SDS011;8458;52.220;9.884;2023-04-03T05:53:14;2.67;;;1.13;;
16689;SDS011;8458;52.220;9.884;2023-04-03T05:55:45;2.43;;;1.20;;
16689;SDS011;8458;52.220;9.884;2023-04-03T05:58:11;1.53;;;1.30;;
16689;SDS011;8458;52.220;9.884;2023-04-03T06:00:37;2.80;;;1.23;;
16689;SDS011;8458;52.220;9.884;2023-04-03T06:03:05;2.10;;;1.00;;
16689;SDS011;8458;52.220;9.884;2023-04-03T06:05:32;4.30;;;1.37;;
16689;SDS011;8458;52.220;9.884;2023-04-03T06:08:01;1.90;;;1.37;;
16689;SDS011;8458;52.220;9.884;2023-04-03T06:10:28;3.20;;;1.20;;
16689;SDS011;8458;52.220;9.884;2023-04-03T06:12:54;1.93;;;1.20;;
16689;SDS011;8458;52.220;9.884;2023-04-03T06:15:21;2.77;;;1.13;;
16689;SDS011;8458;52.220;9.884;2023-04-03T06:17:47;4.60;;;1.43;;
16689;SDS011;8458;52.220;9.884;2023-04-03T06:20:15;2.37;;;1.40;;
16689;SDS011;8458;52.220;9.884;2023-04-03T06:22:42;2.90;;;1.20;;
16689;SDS011;8458;52.220;9.884;2023-04-03T06:25:10;2.43;;;1.30;;
16689;SDS011;8458;52.220;9.884;2023-04-03T06:27:37;3.10;;;1.80;;
16689;SDS011;8458;52.220;9.884;2023-04-03T06:30:04;7.20;;;3.97;;
16689;SDS011;8458;52.220;9.884;2023-04-03T06:32:32;7.17;;;5.97;;
16689;SDS011;8458;52.220;9.884;2023-04-03T06:34:58;3.90;;;3.07;;
16689;SDS011;8458;52.220;9.884;2023-04-03T06:37:25;3.07;;;1.73;;
16689;SDS011;8458;52.220;9.884;2023-04-03T06:39:53;2.73;;;1.40;;
16689;SDS011;8458;52.220;9.884;2023-04-03T06:42:22;5.00;;;3.00;;
16689;SDS011;8458;52.220;9.884;2023-04-03T06:44:48;3.20;;;1.67;;
16689;SDS011;8458;52.220;9.884;2023-04-03T06:47:15;3.00;;;1.60;;
16689;SDS011;8458;52.220;9.884;2023-04-03T06:49:43;1.80;;;1.17;;
16689;SDS011;8458;52.220;9.884;2023-04-03T06:52:10;2.60;;;1.40;;
16689;SDS011;8458;52.220;9.884;2023-04-03T06:54:38;3.93;;;1.47;;
16689;SDS011;8458;52.220;9.884;2023-04-03T06:57:05;2.10;;;1.10;;
16689;SDS011;8458;52.220;9.884;2023-04-03T06:59:33;3.67;;;1.40;;
16689;SDS011;8458;52.220;9.884;2023-04-03T07:02:01;2.87;;;1.43;;
16689;SDS011;8458;52.220;9.884;2023-04-03T07:04:27;3.47;;;1.30;;
16689;SDS011;8458;52.220;9.884;2023-04-03T07:06:54;2.67;;;1.70;;
16689;SDS011;8458;52.220;9.884;2023-04-03T07:09:21;3.10;;;1.90;;
16689;SDS011;8458;52.220;9.884;2023-04-03T07:11:47;3.10;;;1.63;;
16689;SDS011;8458;52.220;9.884;2023-04-03T07:14:14;4.20;;;1.80;;
16689;SDS011;8458;52.220;9.884;2023-04-03T07:16:42;2.17;;;1.30;;
16689;SDS011;8458;52.220;9.884;2023-04-03T07:19:08;2.87;;;1.60;;
16689;SDS011;8458;52.220;9.884;2023-04-03T07:21:35;5.70;;;1.60;;
16689;SDS011;8458;52.220;9.884;2023-04-03T07:24:01;2.33;;;1.33;;
16689;SDS011;8458;52.220;9.884;2023-04-03T07:26:28;2.60;;;1.50;;
16689;SDS011;8458;52.220;9.884;2023-04-03T07:28:55;2.87;;;1.60;;
16689;SDS011;8458;52.220;9.884;2023-04-03T07:31:22;3.60;;;1.60;;
16689;SDS011;8458;52.220;9.884;2023-04-03T07:33:50;2.03;;;1.33;;
16689;SDS011;8458;52.220;9.884;2023-04-03T07:36:17;3.90;;;2.00;;
16689;SDS011;8458;52.220;9.884;2023-04-03T07:38:46;1.77;;;1.30;;
16689;SDS011;8458;52.220;9.884;2023-04-03T07:41:13;3.63;;;1.60;;
16689;SDS011;8458;52.220;9.884;2023-04-03T07:43:42;3.07;;;1.90;;
16689;SDS011;8458;52.220;9.884;2023-04-03T07:46:09;3.97;;;1.70;;
16689;SDS011;8458;52.220;9.884;2023-04-03T07:48:35;3.93;;;1.50;;
16689;SDS011;8458;52.220;9.884;2023-04-03T07:51:03;3.10;;;1.30;;
16689;SDS011;8458;52.220;9.884;2023-04-03T07:53:31;3.40;;;1.80;;
16689;SDS011;8458;52.220;9.884;2023-04-03T07:55:58;3.47;;;1.50;;
16689;SDS011;8458;52.220;9.884;2023-04-03T07:58:25;3.93;;;1.53;;
16689;SDS011;8458;52.220;9.884;2023-04-03T08:00:52;2.93;;;1.40;;
16689;SDS011;8458;52.220;9.884;2023-04-03T08:03:18;2.97;;;1.20;;
16689;SDS011;8458;52.220;9.884;2023-04-03T08:05:46;2.93;;;1.30;;
16689;SDS011;8458;52.220;9.884;2023-04-03T08:08:16;2.60;;;1.13;;
16689;SDS011;8458;52.220;9.884;2023-04-03T08:10:43;2.40;;;1.40;;
16689;SDS011;8458;52.220;9.884;2023-04-03T08:13:13;3.53;;;1.50;;
16689;SDS011;8458;52.220;9.884;2023-04-03T08:15:40;2.63;;;1.27;;
16689;SDS011;8458;52.220;9.884;2023-04-03T08:18:06;3.13;;;1.33;;
16689;SDS011;8458;52.220;9.884;2023-04-03T08:20:33;4.27;;;2.40;;
16689;SDS011;8458;52.220;9.884;2023-04-03T08:22:59;2.50;;;1.30;;
16689;SDS011;8458;52.220;9.884;2023-04-03T08:25:27;3.60;;;1.10;;
16689;SDS011;8458;52.220;9.884;2023-04-03T08:27:54;1.87;;;1.20;;
16689;SDS011;8458;52.220;9.884;2023-04-03T08:30:21;2.13;;;1.20;;
16689;SDS011;8458;52.220;9.884;2023-04-03T08:32:47;2.17;;;1.20;;
16689;SDS011;8458;52.220;9.884;2023-04-03T08:35:14;2.70;;;1.30;;
16689;SDS011;8458;52.220;9.884;2023-04-03T08:37:40;2.57;;;0.93;;
16689;SDS011;8458;52.220;9.884;2023-04-03T08:40:08;2.93;;;1.07;;
16689;SDS011;8458;52.220;9.884;2023-04-03T08:42:43;1.63;;;1.00;;
16689;SDS011;8458;52.220;9.884;2023-04-03T08:45:25;2.13;;;1.00;;
16689;SDS011;8458;52.220;9.884;2023-04-03T08:48:00;2.47;;;0.90;;
16689;SDS011;8458;52.220;9.884;2023-04-03T08:50:31;2.00;;;1.17;;
16689;SDS011;8458;52.220;9.884;2023-04-03T08:53:02;1.70;;;0.77;;
16689;SDS011;8458;52.220;9.884;2023-04-03T08:55:32;1.70;;;0.80;;
16689;SDS011;8458;52.220;9.884;2023-04-03T08:58:03;1.40;;;0.87;;
16689;SDS011;8458;52.220;9.884;2023-04-03T09:00:32;2.07;;;0.90;;
16689;SDS011;8458;52.220;9.884;2023-04-03T09:03:10;2.20;;;1.03;;
16689;SDS011;8458;52.220;9.884;2023-04-03T09:05:39;2.00;;;0.90;;
16689;SDS011;8458;52.220;9.884;2023-04-03T09:08:13;2.43;;;0.97;;
16689;SDS011;8458;52.220;9.884;2023-04-03T09:10:47;2.00;;;1.30;;
16689;SDS011;8458;52.220;9.884;2023-04-03T09:13:19;4.27;;;2.47;;
16689;SDS011;8458;52.220;9.884;2023-04-03T09:15:52;1.60;;;0.70;;
16689;SDS011;8458;52.220;9.884;2023-04-03T09:18:20;3.07;;;1.20;;
16689;SDS011;8458;52.220;9.884;2023-04-03T09:20:53;2.40;;;0.80;;
16689;SDS011;8458;52.220;9.884;2023-04-03T09:23:28;4.53;;;1.47;;
16689;SDS011;8458;52.220;9.884;2023-04-03T09:26:01;1.13;;;0.70;;
16689;SDS011;8458;52.220;9.884;2023-04-03T09:28:31;1.47;;;0.70;;
16689;SDS011;8458;52.220;9.884;2023-04-03T09:31:00;1.27;;;0.70;;
16689;SDS011;8458;52.220;9.884;2023-04-03T09:33:26;1.83;;;0.70;;
16689;SDS011;8458;52.220;9.884;2023-04-03T09:35:56;2.43;;;0.90;;
16689;SDS011;8458;52.220;9.884;2023-04-03T09:38:22;1.47;;;0.80;;
16689;SDS011;8458;52.220;9.884;2023-04-03T09:40:51;1.70;;;1.03;;
16689;SDS011;8458;52.220;9.884;2023-04-03T09:43:32;3.90;;;2.23;;
16689;SDS011;8458;52.220;9.884;2023-04-03T09:46:18;2.63;;;0.70;;
16689;SDS011;8458;52.220;9.884;2023-04-03T09:48:51;2.17;;;1.17;;
16689;SDS011;8458;52.220;9.884;2023-04-03T09:51:23;2.47;;;1.20;;
16689;SDS011;8458;52.220;9.884;2023-04-03T09:53:52;2.30;;;0.83;;
16689;SDS011;8458;52.220;9.884;2023-04-03T09:56:19;1.67;;;1.00;;
16689;SDS011;8458;52.220;9.884;2023-04-03T09:58:50;2.57;;;0.80;;
16689;SDS011;8458;52.220;9.884;2023-04-03T10:01:22;2.70;;;1.20;;
16689;SDS011;8458;52.220;9.884;2023-04-03T10:04:02;2.97;;;0.77;;
16689;SDS011;8458;52.220;9.884;2023-04-03T10:06:36;2.47;;;0.90;;
16689;SDS011;8458;52.220;9.884;2023-04-03T10:09:15;1.93;;;0.70;;
16689;SDS011;8458;52.220;9.884;2023-04-03T10:11:57;2.70;;;0.97;;
16689;SDS011;8458;52.220;9.884;2023-04-03T10:14:27;1.53;;;0.60;;
16689;SDS011;8458;52.220;9.884;2023-04-03T10:16:56;2.00;;;0.73;;
16689;SDS011;8458;52.220;9.884;2023-04-03T10:19:34;2.97;;;1.00;;
16689;SDS011;8458;52.220;9.884;2023-04-03T10:22:08;2.43;;;1.60;;
16689;SDS011;8458;52.220;9.884;2023-04-03T10:24:48;1.30;;;0.53;;
16689;SDS011;8458;52.220;9.884;2023-04-03T10:27:25;1.00;;;0.50;;
16689;SDS011;8458;52.220;9.884;2023-04-03T10:30:01;0.70;;;0.50;;
16689;SDS011;8458;52.220;9.884;2023-04-03T10:32:43;1.33;;;0.70;;
16689;SDS011;8458;52.220;9.884;2023-04-03T10:35:18;1.23;;;0.80;;
16689;SDS011;8458;52.220;9.884;2023-04-03T10:37:54;2.10;;;0.70;;
16689;SDS011;8458;52.220;9.884;2023-04-03T10:40:30;2.10;;;1.30;;
16689;SDS011;8458;52.220;9.884;2023-04-03T10:43:02;1.27;;;0.57;;
16689;SDS011;8458;52.220;9.884;2023-04-03T10:45:37;1.23;;;0.50;;
16689;SDS011;8458;52.220;9.884;2023-04-03T10:48:16;0.97;;;0.83;;
16689;SDS011;8458;52.220;9.884;2023-04-03T10:51:04;1.60;;;0.70;;
16689;SDS011;8458;52.220;9.884;2023-04-03T10:53:41;2.20;;;0.60;;
16689;SDS011;8458;52.220;9.884;2023-04-03T10:56:15;2.67;;;0.60;;
16689;SDS011;8458;52.220;9.884;2023-04-03T10:58:48;1.03;;;0.50;;
16689;SDS011;8458;52.220;9.884;2023-04-03T11:01:19;1.47;;;0.60;;
16689;SDS011;8458;52.220;9.884;2023-04-03T11:03:49;3.43;;;0.80;;
16689;SDS011;8458;52.220;9.884;2023-04-03T11:06:19;1.20;;;0.60;;
16689;SDS011;8458;52.220;9.884;2023-04-03T11:08:49;0.90;;;0.60;;
16689;SDS011;8458;52.220;9.884;2023-04-03T11:11:22;1.57;;;0.50;;
16689;SDS011;8458;52.220;9.884;2023-04-03T11:13:54;1.83;;;0.80;;
16689;SDS011;8458;52.220;9.884;2023-04-03T11:16:26;1.43;;;0.40;;
16689;SDS011;8458;52.220;9.884;2023-04-03T11:18:56;2.57;;;0.80;;
16689;SDS011;8458;52.220;9.884;2023-04-03T11:21:27;1.73;;;0.70;;
16689;SDS011;8458;52.220;9.884;2023-04-03T11:23:57;4.47;;;0.90;;
16689;SDS011;8458;52.220;9.884;2023-04-03T11:26:29;2.17;;;0.60;;
16689;SDS011;8458;52.220;9.884;2023-04-03T11:29:03;3.27;;;0.70;;
16689;SDS011;8458;52.220;9.884;2023-04-03T11:31:38;1.60;;;0.80;;
16689;SDS011;8458;52.220;9.884;2023-04-03T11:34:23;2.77;;;0.90;;
16689;SDS011;8458;52.220;9.884;2023-04-03T11:36:59;1.50;;;1.00;;
16689;SDS011;8458;52.220;9.884;2023-04-03T11:39:28;2.37;;;0.60;;
16689;SDS011;8458;52.220;9.884;2023-04-03T11:42:12;2.87;;;0.97;;
16689;SDS011;8458;52.220;9.884;2023-04-03T11:44:41;1.20;;;0.50;;
16689;SDS011;8458;52.220;9.884;2023-04-03T11:47:10;1.63;;;0.90;;
16689;SDS011;8458;52.220;9.884;2023-04-03T11:49:54;1.60;;;0.60;;
16689;SDS011;8458;52.220;9.884;2023-04-03T11:58:19;1.10;;;0.60;;
16689;SDS011;8458;52.220;9.884;2023-04-03T12:00:53;1.90;;;0.50;;
16689;SDS011;8458;52.220;9.884;2023-04-03T12:03:32;3.63;;;1.63;;
16689;SDS011;8458;52.220;9.884;2023-04-03T12:09:25;6.07;;;4.03;;
16689;SDS011;8458;52.220;9.884;2023-04-03T12:11:54;2.33;;;1.43;;
16689;SDS011;8458;52.220;9.884;2023-04-03T12:14:22;1.13;;;0.80;;
16689;SDS011;8458;52.220;9.884;2023-04-03T12:16:51;1.80;;;1.20;;
16689;SDS011;8458;52.220;9.884;2023-04-03T12:19:34;1.03;;;0.70;;
16689;SDS011;8458;52.220;9.884;2023-04-03T12:22:07;1.87;;;0.60;;
16689;SDS011;8458;52.220;9.884;2023-04-03T12:24:38;1.73;;;0.77;;
16689;SDS011;8458;52.220;9.884;2023-04-03T12:30:11;2.37;;;0.70;;
16689;SDS011;8458;52.220;9.884;2023-04-03T12:32:47;0.60;;;0.50;;
16689;SDS011;8458;52.220;9.884;2023-04-03T12:35:23;1.67;;;0.50;;
16689;SDS011;8458;52.220;9.884;2023-04-03T12:40:46;1.83;;;0.53;;
16689;SDS011;8458;52.220;9.884;2023-04-03T12:46:15;0.80;;;0.57;;
16689;SDS011;8458;52.220;9.884;2023-04-03T12:48:48;2.13;;;0.87;;
16689;SDS011;8458;52.220;9.884;2023-04-03T12:51:19;1.20;;;0.90;;
16689;SDS011;8458;52.220;9.884;2023-04-03T12:53:48;1.20;;;0.60;;
16689;SDS011;8458;52.220;9.884;2023-04-03T12:56:19;2.30;;;0.73;;
16689;SDS011;8458;52.220;9.884;2023-04-03T12:58:47;2.60;;;0.60;;
16689;SDS011;8458;52.220;9.884;2023-04-03T13:01:15;1.07;;;0.60;;
16689;SDS011;8458;52.220;9.884;2023-04-03T13:03:44;1.70;;;0.70;;
16689;SDS011;8458;52.220;9.884;2023-04-03T13:06:14;1.43;;;0.80;;
16689;SDS011;8458;52.220;9.884;2023-04-03T13:08:49;1.03;;;0.50;;
16689;SDS011;8458;52.220;9.884;2023-04-03T13:11:17;1.63;;;0.70;;
16689;SDS011;8458;52.220;9.884;2023-04-03T13:13:56;1.07;;;0.90;;
16689;SDS011;8458;52.220;9.884;2023-04-03T13:16:24;1.30;;;0.60;;
16689;SDS011;8458;52.220;9.884;2023-04-03T13:18:51;0.60;;;0.50;;
16689;SDS011;8458;52.220;9.884;2023-04-03T13:21:20;1.67;;;0.73;;
16689;SDS011;8458;52.220;9.884;2023-04-03T13:23:50;1.77;;;0.80;;
16689;SDS011;8458;52.220;9.884;2023-04-03T13:26:20;0.77;;;0.60;;
16689;SDS011;8458;52.220;9.884;2023-04-03T13:28:49;1.43;;;1.10;;
16689;SDS011;8458;52.220;9.884;2023-04-03T13:31:20;1.10;;;0.93;;
16689;SDS011;8458;52.220;9.884;2023-04-03T13:33:55;1.90;;;1.00;;
16689;SDS011;8458;52.220;9.884;2023-04-03T13:36:26;1.63;;;1.10;;
16689;SDS011;8458;52.220;9.884;2023-04-03T13:38:59;0.90;;;0.60;;
16689;SDS011;8458;52.220;9.884;2023-04-03T13:41:29;1.17;;;0.50;;
16689;SDS011;8458;52.220;9.884;2023-04-03T13:44:03;0.90;;;0.50;;
16689;SDS011;8458;52.220;9.884;2023-04-03T13:46:41;1.70;;;0.60;;
16689;SDS011;8458;52.220;9.884;2023-04-03T13:49:17;2.17;;;0.70;;
16689;SDS011;8458;52.220;9.884;2023-04-03T13:51:47;2.23;;;0.60;;
16689;SDS011;8458;52.220;9.884;2023-04-03T13:54:18;2.43;;;0.70;;
16689;SDS011;8458;52.220;9.884;2023-04-03T13:56:51;0.90;;;0.57;;
16689;SDS011;8458;52.220;9.884;2023-04-03T13:59:22;1.60;;;0.43;;
16689;SDS011;8458;52.220;9.884;2023-04-03T14:01:52;0.83;;;0.50;;
16689;SDS011;8458;52.220;9.884;2023-04-03T14:04:21;0.43;;;0.40;;
16689;SDS011;8458;52.220;9.884;2023-04-03T14:06:51;0.90;;;0.50;;
16689;SDS011;8458;52.220;9.884;2023-04-03T14:09:18;0.70;;;0.60;;
16689;SDS011;8458;52.220;9.884;2023-04-03T14:11:46;1.17;;;0.80;;
16689;SDS011;8458;52.220;9.884;2023-04-03T14:14:14;1.47;;;0.70;;
16689;SDS011;8458;52.220;9.884;2023-04-03T14:16:46;1.23;;;0.63;;
16689;SDS011;8458;52.220;9.884;2023-04-03T14:19:17;2.00;;;0.90;;
16689;SDS011;8458;52.220;9.884;2023-04-03T14:21:47;1.40;;;0.60;;
16689;SDS011;8458;52.220;9.884;2023-04-03T14:24:15;4.30;;;0.60;;
16689;SDS011;8458;52.220;9.884;2023-04-03T14:26:42;0.97;;;0.50;;
16689;SDS011;8458;52.220;9.884;2023-04-03T14:29:10;1.53;;;0.57;;
16689;SDS011;8458;52.220;9.884;2023-04-03T14:31:38;1.70;;;0.53;;
16689;SDS011;8458;52.220;9.884;2023-04-03T14:34:05;1.23;;;0.60;;
16689;SDS011;8458;52.220;9.884;2023-04-03T14:36:31;0.90;;;0.50;;
16689;SDS011;8458;52.220;9.884;2023-04-03T14:38:58;0.93;;;0.60;;
16689;SDS011;8458;52.220;9.884;2023-04-03T14:41:28;1.43;;;0.60;;
16689;SDS011;8458;52.220;9.884;2023-04-03T14:43:55;0.80;;;0.50;;
16689;SDS011;8458;52.220;9.884;2023-04-03T14:46:22;1.90;;;0.70;;
16689;SDS011;8458;52.220;9.884;2023-04-03T14:48:51;1.07;;;0.70;;
16689;SDS011;8458;52.220;9.884;2023-04-03T14:51:18;0.80;;;0.50;;
16689;SDS011;8458;52.220;9.884;2023-04-03T14:53:44;1.50;;;0.70;;
16689;SDS011;8458;52.220;9.884;2023-04-03T14:56:12;1.50;;;0.60;;
16689;SDS011;8458;52.220;9.884;2023-04-03T14:58:41;1.20;;;0.60;;
16689;SDS011;8458;52.220;9.884;2023-04-03T15:01:09;1.70;;;0.70;;
16689;SDS011;8458;52.220;9.884;2023-04-03T15:03:36;0.90;;;0.70;;
16689;SDS011;8458;52.220;9.884;2023-04-03T15:06:03;0.83;;;0.70;;
16689;SDS011;8458;52.220;9.884;2023-04-03T15:08:30;1.10;;;0.63;;
16689;SDS011;8458;52.220;9.884;2023-04-03T15:10:56;1.47;;;0.70;;
16689;SDS011;8458;52.220;9.884;2023-04-03T15:13:23;1.83;;;1.57;;
16689;SDS011;8458;52.220;9.884;2023-04-03T15:15:52;2.77;;;2.03;;
16689;SDS011;8458;52.220;9.884;2023-04-03T15:18:20;1.60;;;0.90;;
16689;SDS011;8458;52.220;9.884;2023-04-03T15:20:51;1.10;;;0.63;;
16689;SDS011;8458;52.220;9.884;2023-04-03T15:23:18;1.50;;;0.70;;
16689;SDS011;8458;52.220;9.884;2023-04-03T15:25:44;1.20;;;0.70;;
16689;SDS011;8458;52.220;9.884;2023-04-03T15:28:17;3.00;;;1.80;;
16689;SDS011;8458;52.220;9.884;2023-04-03T15:30:47;2.17;;;1.70;;